createdAt,value
2022-09-25T00:02:08.301Z,14.93
2022-09-25T00:04:55.717Z,14.53
2022-09-25T00:07:24.291Z,13.57
2022-09-25T00:09:52.868Z,14.23
2022-09-25T00:12:21.576Z,14.23
2022-09-25T00:14:53.639Z,13.93
2022-09-25T00:17:22.472Z,13.63
2022-09-25T00:19:52.972Z,13.63
2022-09-25T00:22:22.819Z,13.90
2022-09-25T00:24:51.727Z,13.20
2022-09-25T00:27:20.529Z,13.23
2022-09-25T00:29:49.388Z,12.20
2022-09-25T00:32:19.544Z,13.03
2022-09-25T00:34:48.490Z,12.57
2022-09-25T00:37:17.099Z,12.60
2022-09-25T00:39:45.782Z,12.47
2022-09-25T00:42:14.982Z,12.20
2022-09-25T00:44:59.546Z,12.93
2022-09-25T00:47:42.206Z,13.20
2022-09-25T00:50:19.994Z,12.90
2022-09-25T00:53:11.994Z,12.80
2022-09-25T00:55:45.203Z,12.37
2022-09-25T00:58:16.569Z,12.53
2022-09-25T01:00:45.772Z,12.90
2022-09-25T01:03:17.991Z,13.67
2022-09-25T01:05:47.850Z,13.43
2022-09-25T01:08:20.563Z,12.27
2022-09-25T01:10:49.266Z,12.17
2022-09-25T01:13:19.510Z,12.73
2022-09-25T01:15:55.281Z,14.07
2022-09-25T01:18:34.730Z,13.67
2022-09-25T01:21:23.520Z,13.67
2022-09-25T01:24:20.641Z,13.60
2022-09-25T01:27:18.242Z,13.20
2022-09-25T01:29:55.116Z,13.30
2022-09-25T01:32:30.153Z,13.23
2022-09-25T01:35:03.664Z,12.90
2022-09-25T01:37:39.007Z,13.07
2022-09-25T01:40:12.487Z,12.30
2022-09-25T01:42:46.230Z,12.47
2022-09-25T01:45:22.277Z,12.40
2022-09-25T01:47:53.358Z,12.50
2022-09-25T01:50:28.993Z,13.43
2022-09-25T01:53:03.525Z,13.17
2022-09-25T01:55:36.792Z,12.50
2022-09-25T01:58:12.243Z,12.87
2022-09-25T02:00:47.659Z,14.10
2022-09-25T02:03:22.764Z,11.87
2022-09-25T02:05:55.099Z,12.53
2022-09-25T02:08:28.831Z,12.40
2022-09-25T02:11:02.451Z,13.80
2022-09-25T02:13:53.675Z,13.60
2022-09-25T02:16:29.055Z,14.10
2022-09-25T02:19:15.259Z,14.43
2022-09-25T02:21:50.872Z,14.20
2022-09-25T02:24:23.363Z,13.93
2022-09-25T02:26:52.536Z,13.63
2022-09-25T02:29:22.015Z,14.00
2022-09-25T02:31:57.183Z,14.60
2022-09-25T02:34:26.294Z,13.23
2022-09-25T02:36:55.732Z,14.90
2022-09-25T02:39:29.684Z,15.63
2022-09-25T02:42:20.023Z,16.10
2022-09-25T02:45:10.220Z,16.13
2022-09-25T02:47:51.640Z,15.57
2022-09-25T02:50:25.553Z,15.00
2022-09-25T02:53:02.834Z,15.33
2022-09-25T02:55:39.278Z,13.63
2022-09-25T02:58:15.118Z,14.50
2022-09-25T03:00:48.405Z,14.27
2022-09-25T03:03:21.002Z,14.10
2022-09-25T03:05:51.927Z,13.57
2022-09-25T03:08:39.641Z,13.00
2022-09-25T03:11:10.373Z,12.20
2022-09-25T03:13:39.240Z,12.70
2022-09-25T03:16:13.879Z,12.40
2022-09-25T03:18:44.054Z,12.63
2022-09-25T03:21:12.784Z,13.30
2022-09-25T03:23:41.632Z,13.37
2022-09-25T03:26:10.566Z,13.07
2022-09-25T03:28:39.335Z,14.37
2022-09-25T03:31:10.986Z,13.67
2022-09-25T03:33:41.885Z,14.03
2022-09-25T03:36:14.736Z,14.03
2022-09-25T03:38:44.451Z,13.67
2022-09-25T03:41:14.407Z,13.90
2022-09-25T03:43:44.736Z,14.97
2022-09-25T03:46:14.986Z,16.03
2022-09-25T03:48:43.877Z,16.70
2022-09-25T03:51:14.356Z,16.70
2022-09-25T03:53:43.382Z,17.00
2022-09-25T03:56:15.111Z,16.17
2022-09-25T03:58:44.083Z,15.83
2022-09-25T04:01:12.834Z,15.10
2022-09-25T04:03:45.019Z,15.20
2022-09-25T04:06:18.523Z,15.10
2022-09-25T04:08:48.480Z,15.97
2022-09-25T04:11:18.135Z,14.97
2022-09-25T04:13:47.302Z,14.90
2022-09-25T04:16:18.064Z,14.27
2022-09-25T04:18:46.925Z,14.33
2022-09-25T04:21:17.664Z,15.77
2022-09-25T04:24:06.986Z,14.43
2022-09-25T04:26:36.751Z,13.03
2022-09-25T04:29:05.609Z,13.57
2022-09-25T04:31:34.538Z,13.73
2022-09-25T04:34:03.719Z,13.67
2022-09-25T04:36:33.824Z,13.67
2022-09-25T04:39:03.189Z,13.77
2022-09-25T04:41:31.854Z,14.20
2022-09-25T04:44:00.613Z,14.50
2022-09-25T04:46:29.456Z,14.73
2022-09-25T04:48:58.145Z,14.60
2022-09-25T04:51:26.922Z,15.93
2022-09-25T04:53:58.039Z,16.23
2022-09-25T04:56:27.126Z,15.40
2022-09-25T04:58:55.838Z,16.23
2022-09-25T05:01:24.574Z,15.43
2022-09-25T05:03:54.385Z,16.27
2022-09-25T05:06:23.688Z,15.27
2022-09-25T05:08:53.259Z,17.40
2022-09-25T05:11:23.599Z,15.50
2022-09-25T05:13:52.822Z,15.70
2022-09-25T05:16:21.813Z,16.23
2022-09-25T05:18:50.619Z,15.97
2022-09-25T05:21:19.392Z,16.30
2022-09-25T05:23:47.994Z,15.83
2022-09-25T05:26:16.661Z,16.10
2022-09-25T05:28:50.351Z,16.73
2022-09-25T05:31:19.448Z,17.33
2022-09-25T05:33:48.178Z,16.43
2022-09-25T05:36:18.425Z,16.70
2022-09-25T05:38:47.204Z,15.97
2022-09-25T05:41:15.972Z,15.53
2022-09-25T05:43:47.852Z,16.60
2022-09-25T05:46:17.147Z,17.13
2022-09-25T05:48:45.818Z,16.10
2022-09-25T05:51:14.747Z,16.53
2022-09-25T05:53:43.548Z,16.47
2022-09-25T05:56:12.420Z,16.47
2022-09-25T05:58:41.197Z,16.10
2022-09-25T06:01:11.310Z,16.20
2022-09-25T06:03:40.167Z,16.57
2022-09-25T06:06:09.176Z,15.43
2022-09-25T06:08:37.881Z,15.83
2022-09-25T06:11:08.204Z,16.43
2022-09-25T06:13:37.250Z,16.00
2022-09-25T06:16:06.995Z,15.97
2022-09-25T06:18:38.626Z,15.10
2022-09-25T06:21:07.753Z,15.27
2022-09-25T06:23:36.471Z,14.83
2022-09-25T06:26:08.024Z,13.60
2022-09-25T06:28:36.722Z,13.23
2022-09-25T06:31:05.910Z,11.77
2022-09-25T06:33:34.756Z,9.67
2022-09-25T06:36:07.343Z,10.17
2022-09-25T06:38:36.228Z,9.07
2022-09-25T06:41:05.001Z,9.00
2022-09-25T06:43:33.763Z,10.07
2022-09-25T06:46:04.070Z,8.00
2022-09-25T06:48:32.983Z,7.70
2022-09-25T06:51:02.750Z,8.43
2022-09-25T06:53:32.949Z,8.50
2022-09-25T06:56:02.016Z,7.03
2022-09-25T06:58:31.845Z,7.50
2022-09-25T07:01:00.539Z,8.13
2022-09-25T07:03:46.854Z,8.53
2022-09-25T07:06:35.382Z,8.33
2022-09-25T07:09:06.016Z,7.83
2022-09-25T07:11:35.536Z,9.00
2022-09-25T07:14:04.241Z,10.63
2022-09-25T07:16:34.633Z,8.90
2022-09-25T07:19:04.643Z,8.07
2022-09-25T07:21:33.264Z,7.80
2022-09-25T07:24:02.000Z,11.30
2022-09-25T07:26:36.196Z,8.70
2022-09-25T07:29:08.113Z,8.17
2022-09-25T07:31:38.269Z,8.77
2022-09-25T07:34:09.702Z,8.80
2022-09-25T07:36:39.570Z,8.53
2022-09-25T07:39:08.631Z,9.13
2022-09-25T07:41:46.659Z,8.30
2022-09-25T07:44:38.222Z,7.97
2022-09-25T07:47:09.061Z,8.30
2022-09-25T07:49:37.825Z,7.50
2022-09-25T07:52:06.854Z,7.47
2022-09-25T07:54:38.031Z,7.17
2022-09-25T07:57:08.197Z,7.20
2022-09-25T07:59:37.128Z,6.70
2022-09-25T08:02:06.169Z,7.70
2022-09-25T08:04:34.886Z,10.50
2022-09-25T08:07:05.424Z,8.00
2022-09-25T08:09:38.091Z,7.40
2022-09-25T08:12:14.741Z,6.10
2022-09-25T08:14:43.509Z,6.80
2022-09-25T08:17:12.277Z,5.93
2022-09-25T08:19:44.200Z,6.20
2022-09-25T08:22:13.047Z,7.60
2022-09-25T08:24:41.982Z,6.43
2022-09-25T08:27:12.997Z,8.20
2022-09-25T08:29:41.707Z,7.53
2022-09-25T08:32:10.350Z,10.23
2022-09-25T08:34:41.720Z,8.73
2022-09-25T08:37:11.137Z,10.93
2022-09-25T08:39:39.863Z,7.33
2022-09-25T08:42:12.861Z,6.40
2022-09-25T08:45:22.146Z,6.27
2022-09-25T08:48:12.674Z,5.10
2022-09-25T08:50:44.536Z,5.90
2022-09-25T08:53:25.247Z,5.70
2022-09-25T08:56:13.901Z,5.60
2022-09-25T08:58:56.594Z,5.03
2022-09-25T09:01:34.243Z,4.97
2022-09-25T09:04:15.630Z,4.30
2022-09-25T09:06:57.499Z,4.53
2022-09-25T09:10:07.617Z,3.50
2022-09-25T09:12:43.589Z,4.00
2022-09-25T09:15:31.586Z,4.23
2022-09-25T09:18:18.305Z,3.90
2022-09-25T09:20:57.545Z,3.80
2022-09-25T09:23:36.597Z,3.77
2022-09-25T09:26:15.093Z,4.03
2022-09-25T09:29:18.611Z,4.90
2022-09-25T09:31:59.612Z,3.67
2022-09-25T09:35:04.921Z,3.10
2022-09-25T09:37:51.260Z,3.90
2022-09-25T09:40:32.206Z,4.40
2022-09-25T09:43:13.848Z,3.30
2022-09-25T09:45:49.776Z,3.40
2022-09-25T09:48:29.593Z,3.60
2022-09-25T09:51:07.466Z,3.93
2022-09-25T09:53:42.505Z,3.90
2022-09-25T09:56:15.095Z,3.13
2022-09-25T09:58:50.451Z,2.90
2022-09-25T10:01:40.413Z,2.90
2022-09-25T10:04:35.554Z,3.00
2022-09-25T10:07:10.065Z,3.23
2022-09-25T10:09:38.744Z,3.67
2022-09-25T10:12:14.959Z,3.80
2022-09-25T10:14:48.365Z,4.07
2022-09-25T10:17:18.986Z,3.70
2022-09-25T10:19:53.175Z,3.70
2022-09-25T10:22:45.275Z,3.00
2022-09-25T10:25:14.441Z,3.13
2022-09-25T10:27:46.503Z,2.40
2022-09-25T10:30:21.952Z,2.63
2022-09-25T10:32:58.909Z,2.20
2022-09-25T10:35:43.242Z,4.50
2022-09-25T10:38:31.286Z,2.50
2022-09-25T10:41:08.505Z,5.77
2022-09-25T10:43:39.879Z,4.77
2022-09-25T10:46:14.419Z,5.00
2022-09-25T10:49:01.570Z,10.30
2022-09-25T10:51:32.697Z,9.50
2022-09-25T10:54:17.107Z,5.80
2022-09-25T10:56:45.976Z,2.73
2022-09-25T10:59:20.172Z,3.13
2022-09-25T11:01:50.527Z,2.60
2022-09-25T11:04:23.237Z,2.67
2022-09-25T11:06:58.322Z,3.37
2022-09-25T11:09:30.248Z,3.57
2022-09-25T11:12:09.360Z,2.20
2022-09-25T11:14:38.601Z,2.70
2022-09-25T11:17:08.493Z,2.80
2022-09-25T11:19:39.040Z,2.80
2022-09-25T11:22:16.968Z,2.47
2022-09-25T11:25:02.627Z,2.47
2022-09-25T11:27:37.719Z,2.50
2022-09-25T11:30:10.748Z,2.47
2022-09-25T11:32:50.332Z,2.30
2022-09-25T11:35:42.923Z,2.70
2022-09-25T11:38:44.794Z,2.20
2022-09-25T11:41:23.746Z,2.40
2022-09-25T11:44:07.500Z,4.93
2022-09-25T11:46:50.576Z,2.80
2022-09-25T11:49:25.033Z,3.60
2022-09-25T11:52:23.049Z,3.20
2022-09-25T11:55:21.898Z,2.63
2022-09-25T11:58:08.399Z,3.47
2022-09-25T12:00:46.989Z,2.87
2022-09-25T12:03:35.992Z,2.50
2022-09-25T12:06:24.941Z,2.70
2022-09-25T12:09:10.484Z,2.97
2022-09-25T12:11:51.559Z,2.90
2022-09-25T12:14:29.050Z,3.77
2022-09-25T12:17:08.197Z,3.47
2022-09-25T12:19:47.252Z,3.40
2022-09-25T12:22:22.486Z,4.70
2022-09-25T12:25:00.188Z,4.57
2022-09-25T12:27:44.912Z,4.20
2022-09-25T12:30:21.614Z,3.30
2022-09-25T12:33:17.063Z,3.57
2022-09-25T12:35:52.291Z,3.90
2022-09-25T12:38:30.308Z,3.20
2022-09-25T12:41:07.055Z,3.20
2022-09-25T12:43:41.429Z,4.00
2022-09-25T12:46:19.679Z,5.10
2022-09-25T12:48:53.620Z,3.70
2022-09-25T12:51:27.918Z,4.50
2022-09-25T12:54:01.120Z,3.83
2022-09-25T12:56:36.476Z,4.13
2022-09-25T12:59:16.271Z,3.87
2022-09-25T13:01:52.945Z,4.00
2022-09-25T13:04:36.287Z,4.00
2022-09-25T13:07:16.502Z,3.40
2022-09-25T13:09:49.080Z,3.73
2022-09-25T13:12:34.403Z,4.00
2022-09-25T13:15:09.311Z,4.20
2022-09-25T13:17:40.620Z,3.83
2022-09-25T13:20:48.841Z,3.67
2022-09-25T13:23:36.804Z,3.70
2022-09-25T13:26:15.076Z,3.77
2022-09-25T13:28:59.978Z,3.80
2022-09-25T13:31:35.339Z,3.60
2022-09-25T13:34:19.082Z,3.90
2022-09-25T13:36:59.433Z,3.60
2022-09-25T13:39:57.487Z,3.20
2022-09-25T13:42:30.800Z,3.40
2022-09-25T13:45:09.727Z,3.43
2022-09-25T13:47:53.020Z,3.70
2022-09-25T13:50:29.937Z,3.50
2022-09-25T13:53:24.084Z,3.20
2022-09-25T13:56:18.817Z,3.43
